createdAt,value
2023-01-20T00:00:41.558Z,93.68
2023-01-20T00:03:07.868Z,93.80
2023-01-20T00:05:34.162Z,94.19
2023-01-20T00:08:00.487Z,94.13
2023-01-20T00:10:29.125Z,94.35
2023-01-20T00:12:56.798Z,94.21
2023-01-20T00:15:23.118Z,94.59
2023-01-20T00:17:49.445Z,93.90
2023-01-20T00:20:15.801Z,94.41
2023-01-20T00:22:42.133Z,94.49
2023-01-20T00:25:09.201Z,95.09
2023-01-20T00:27:35.519Z,95.31
2023-01-20T00:30:03.544Z,94.48
2023-01-20T00:32:29.833Z,95.21
2023-01-20T00:34:56.324Z,94.28
2023-01-20T00:37:22.670Z,94.66
2023-01-20T00:39:48.949Z,93.70
2023-01-20T00:42:15.283Z,94.43
2023-01-20T00:44:41.562Z,94.45
2023-01-20T00:47:09.207Z,94.26
2023-01-20T00:49:35.510Z,94.60
2023-01-20T00:52:01.856Z,94.20
2023-01-20T00:54:28.150Z,94.10
2023-01-20T00:56:54.458Z,93.86
2023-01-20T00:59:20.814Z,94.57
2023-01-20T01:01:47.385Z,94.52
2023-01-20T01:04:15.078Z,94.02
2023-01-20T01:06:41.402Z,93.84
2023-01-20T01:09:07.750Z,94.22
2023-01-20T01:11:34.071Z,94.07
2023-01-20T01:14:00.402Z,94.13
2023-01-20T01:16:26.791Z,94.26
2023-01-20T01:18:53.410Z,94.47
2023-01-20T01:21:21.750Z,94.08
2023-01-20T01:23:48.107Z,94.19
2023-01-20T01:26:14.489Z,93.62
2023-01-20T01:28:40.841Z,94.07
2023-01-20T01:31:07.935Z,93.56
2023-01-20T01:33:34.568Z,92.94
2023-01-20T01:36:01.508Z,93.38
2023-01-20T01:38:29.134Z,93.09
2023-01-20T01:40:56.077Z,93.32
2023-01-20T01:43:23.750Z,93.19
2023-01-20T01:45:50.256Z,93.84
2023-01-20T01:48:17.791Z,93.93
2023-01-20T01:50:46.531Z,92.95
2023-01-20T01:53:13.471Z,93.41
2023-01-20T01:55:43.620Z,94.23
2023-01-20T01:58:11.838Z,94.12
2023-01-20T02:00:38.755Z,93.92
2023-01-20T02:03:05.776Z,93.35
2023-01-20T02:05:32.830Z,93.59
2023-01-20T02:07:59.129Z,93.99
2023-01-20T02:10:25.441Z,93.55
2023-01-20T02:12:53.555Z,94.17
2023-01-20T02:15:25.675Z,95.25
2023-01-20T02:17:57.305Z,94.92
2023-01-20T02:20:42.376Z,95.90
2023-01-20T02:23:12.749Z,95.67
2023-01-20T02:25:46.882Z,96.04
2023-01-20T02:28:30.936Z,95.69
2023-01-20T02:31:13.852Z,94.74
2023-01-20T02:33:43.921Z,95.09
2023-01-20T02:36:11.334Z,95.24
2023-01-20T02:38:42.745Z,94.39
2023-01-20T02:41:12.144Z,94.67
2023-01-20T02:43:44.260Z,93.83
2023-01-20T02:46:13.748Z,94.28
2023-01-20T02:48:44.224Z,93.84
2023-01-20T02:51:12.881Z,94.07
2023-01-20T02:53:43.456Z,93.29
2023-01-20T02:56:11.242Z,93.20
2023-01-20T02:58:40.538Z,92.91
2023-01-20T03:01:09.961Z,92.45
2023-01-20T03:03:38.352Z,91.82
2023-01-20T03:06:08.678Z,92.39
2023-01-20T03:08:36.512Z,93.07
2023-01-20T03:11:04.898Z,92.52
2023-01-20T03:13:33.974Z,92.78
2023-01-20T03:16:02.503Z,92.84
2023-01-20T03:18:29.490Z,92.70
2023-01-20T03:20:56.677Z,92.99
2023-01-20T03:23:24.808Z,92.89
2023-01-20T03:25:51.511Z,92.12
2023-01-20T03:28:17.865Z,91.84
2023-01-20T03:30:44.236Z,91.87
2023-01-20T03:33:11.671Z,92.43
2023-01-20T03:35:38.654Z,92.33
2023-01-20T03:38:05.035Z,92.16
2023-01-20T03:40:46.213Z,92.29
2023-01-20T03:43:17.150Z,92.63
2023-01-20T03:45:51.813Z,92.31
2023-01-20T03:48:22.288Z,92.25
2023-01-20T03:50:53.899Z,92.82
2023-01-20T03:53:24.467Z,92.73
2023-01-20T03:55:56.206Z,92.93
2023-01-20T03:58:27.007Z,92.67
2023-01-20T04:00:53.860Z,92.72
2023-01-20T04:03:23.158Z,92.67
2023-01-20T04:05:50.067Z,93.29
2023-01-20T04:08:17.633Z,93.59
2023-01-20T04:10:46.951Z,93.66
2023-01-20T04:13:15.106Z,94.18
2023-01-20T04:15:42.638Z,94.10
2023-01-20T04:18:15.952Z,93.63
2023-01-20T04:20:43.198Z,93.36
2023-01-20T04:23:14.055Z,93.99
2023-01-20T04:25:40.635Z,92.85
2023-01-20T04:28:06.998Z,94.24
2023-01-20T04:30:34.669Z,93.90
2023-01-20T04:33:00.982Z,94.39
2023-01-20T04:35:27.306Z,94.09
2023-01-20T04:37:53.582Z,94.01
2023-01-20T04:40:19.867Z,94.06
2023-01-20T04:42:46.198Z,93.81
2023-01-20T04:45:15.000Z,93.24
2023-01-20T04:47:43.220Z,93.41
2023-01-20T04:50:10.454Z,93.70
2023-01-20T04:52:36.858Z,93.40
2023-01-20T04:55:03.482Z,94.20
2023-01-20T04:57:29.819Z,93.97
2023-01-20T04:59:56.223Z,94.66
2023-01-20T05:02:22.654Z,94.75
2023-01-20T05:04:50.426Z,95.64
2023-01-20T05:07:16.871Z,95.06
2023-01-20T05:09:43.163Z,94.38
2023-01-20T05:12:09.480Z,95.03
2023-01-20T05:14:35.792Z,94.55
2023-01-20T05:17:02.112Z,94.65
2023-01-20T05:19:28.459Z,95.13
2023-01-20T05:21:56.081Z,95.24
2023-01-20T05:24:24.313Z,94.24
2023-01-20T05:26:50.606Z,94.18
2023-01-20T05:29:16.924Z,94.19
2023-01-20T05:31:43.622Z,95.49
2023-01-20T05:34:10.373Z,95.47
2023-01-20T05:36:36.772Z,96.45
2023-01-20T05:39:04.508Z,96.04
2023-01-20T05:41:30.845Z,96.14
2023-01-20T05:43:57.141Z,96.04
2023-01-20T05:46:23.501Z,95.40
2023-01-20T05:48:49.872Z,94.80
2023-01-20T05:51:16.212Z,94.89
2023-01-20T05:53:42.485Z,94.98
2023-01-20T05:56:10.157Z,95.28
2023-01-20T05:58:36.434Z,94.80
2023-01-20T06:01:06.320Z,94.27
2023-01-20T06:03:32.661Z,94.42
2023-01-20T06:05:59.584Z,94.38
2023-01-20T06:08:25.857Z,93.29
2023-01-20T06:10:52.472Z,92.79
2023-01-20T06:13:20.108Z,93.50
2023-01-20T06:15:50.692Z,94.51
2023-01-20T06:18:17.041Z,94.33
2023-01-20T06:20:43.361Z,93.57
2023-01-20T06:23:09.721Z,94.15
2023-01-20T06:25:36.151Z,93.11
2023-01-20T06:28:02.481Z,93.70
2023-01-20T06:30:30.139Z,94.01
2023-01-20T06:32:56.450Z,93.31
2023-01-20T06:35:22.831Z,93.12
2023-01-20T06:37:49.154Z,92.97
2023-01-20T06:40:15.945Z,93.24
2023-01-20T06:42:42.380Z,93.05
2023-01-20T06:45:09.266Z,93.13
2023-01-20T06:47:36.929Z,93.89
2023-01-20T06:50:03.383Z,93.75
2023-01-20T06:52:29.751Z,93.62
2023-01-20T06:54:56.089Z,92.83
2023-01-20T06:57:22.390Z,92.08
2023-01-20T06:59:48.722Z,92.68
2023-01-20T07:02:15.151Z,92.95
2023-01-20T07:04:43.021Z,92.40
2023-01-20T07:07:10.960Z,92.62
2023-01-20T07:09:37.287Z,91.87
2023-01-20T07:12:03.771Z,94.00
2023-01-20T07:14:30.063Z,91.46
2023-01-20T07:16:56.358Z,90.97
2023-01-20T07:19:22.955Z,90.72
2023-01-20T07:21:50.618Z,90.76
2023-01-20T07:24:16.991Z,90.48
2023-01-20T07:26:43.344Z,90.57
2023-01-20T07:29:09.738Z,90.43
2023-01-20T07:31:36.202Z,91.11
2023-01-20T07:34:02.521Z,90.23
2023-01-20T07:36:28.828Z,90.12
2023-01-20T07:38:56.508Z,90.35
2023-01-20T07:41:22.848Z,90.25
2023-01-20T07:43:50.324Z,90.03
2023-01-20T07:46:17.065Z,89.45
2023-01-20T07:48:43.484Z,89.60
2023-01-20T07:51:10.680Z,88.99
2023-01-20T07:53:37.907Z,89.94
2023-01-20T07:56:06.629Z,89.35
2023-01-20T07:58:33.436Z,89.65
2023-01-20T08:01:05.854Z,89.15
2023-01-20T08:03:32.325Z,88.92
2023-01-20T08:06:01.484Z,88.48
2023-01-20T08:08:27.794Z,88.07
2023-01-20T08:10:54.456Z,87.78
2023-01-20T08:13:22.121Z,87.23
2023-01-20T08:15:48.414Z,86.83
2023-01-20T08:18:14.702Z,87.60
2023-01-20T08:20:41.188Z,86.62
2023-01-20T08:23:07.493Z,87.13
2023-01-20T08:25:33.786Z,87.38
2023-01-20T08:28:00.142Z,87.11
2023-01-20T08:30:27.883Z,86.29
2023-01-20T08:32:54.241Z,83.11
2023-01-20T08:35:20.709Z,80.43
2023-01-20T08:37:47.119Z,78.47
2023-01-20T08:40:13.720Z,75.63
2023-01-20T08:42:40.041Z,75.05
2023-01-20T08:45:08.555Z,76.28
2023-01-20T08:47:37.841Z,76.62
2023-01-20T08:50:04.501Z,75.45
2023-01-20T08:52:30.877Z,76.88
2023-01-20T08:54:57.260Z,77.12
2023-01-20T08:57:24.463Z,78.38
2023-01-20T08:59:50.796Z,78.65
2023-01-20T09:02:17.148Z,78.91
2023-01-20T09:04:44.917Z,78.71
2023-01-20T09:07:11.669Z,77.66
2023-01-20T09:09:38.749Z,75.86
2023-01-20T09:12:05.281Z,74.62
2023-01-20T09:14:31.921Z,73.19
2023-01-20T09:16:58.431Z,73.46
2023-01-20T09:19:24.798Z,71.79
2023-01-20T09:21:52.489Z,73.67
2023-01-20T09:24:18.822Z,74.59
2023-01-20T09:26:45.166Z,75.18
2023-01-20T09:29:12.289Z,77.61
2023-01-20T09:31:40.015Z,78.28
2023-01-20T09:34:06.730Z,79.37
2023-01-20T09:36:33.183Z,81.07
2023-01-20T09:39:01.189Z,79.08
2023-01-20T09:41:28.649Z,79.02
2023-01-20T09:43:58.384Z,80.05
2023-01-20T09:46:30.547Z,80.23
2023-01-20T09:49:02.614Z,80.58
2023-01-20T09:51:34.254Z,80.29
2023-01-20T09:54:03.974Z,79.75
2023-01-20T09:56:43.575Z,79.81
2023-01-20T09:59:13.139Z,80.74
2023-01-20T10:01:42.338Z,81.29
2023-01-20T10:04:13.474Z,81.43
2023-01-20T10:06:41.267Z,81.70
2023-01-20T10:09:16.383Z,81.99
2023-01-20T10:11:45.987Z,80.71
2023-01-20T10:14:15.543Z,81.13
2023-01-20T10:16:44.538Z,80.63
2023-01-20T10:19:15.644Z,80.53
2023-01-20T10:21:46.221Z,81.00
2023-01-20T10:24:16.894Z,80.64
2023-01-20T10:26:46.199Z,80.13
2023-01-20T10:29:17.275Z,80.51
2023-01-20T10:31:47.509Z,81.30
2023-01-20T10:34:16.736Z,80.91
2023-01-20T10:36:44.310Z,81.53
2023-01-20T10:39:13.433Z,81.52
2023-01-20T10:41:43.826Z,80.80
2023-01-20T10:44:11.262Z,81.66
2023-01-20T10:46:46.971Z,82.24
2023-01-20T10:49:23.622Z,82.94
2023-01-20T10:51:52.774Z,83.78
2023-01-20T10:54:26.693Z,82.81
2023-01-20T10:56:55.620Z,83.18
2023-01-20T10:59:26.679Z,83.80
2023-01-20T11:02:10.710Z,84.54
2023-01-20T11:04:38.164Z,84.28
2023-01-20T11:07:04.708Z,83.65
2023-01-20T11:09:33.515Z,83.38
2023-01-20T11:12:02.053Z,83.38
2023-01-20T11:14:28.876Z,82.34
2023-01-20T11:16:59.553Z,82.17
2023-01-20T11:19:25.932Z,82.88
2023-01-20T11:21:52.508Z,82.03
2023-01-20T11:24:31.962Z,81.05
2023-01-20T11:27:04.224Z,81.00
2023-01-20T11:29:32.134Z,81.62
2023-01-20T11:31:58.666Z,81.72
2023-01-20T11:34:26.065Z,81.59
2023-01-20T11:37:12.725Z,81.76
2023-01-20T11:39:43.068Z,81.93
2023-01-20T11:42:14.525Z,82.99
2023-01-20T11:44:44.483Z,84.37
2023-01-20T11:47:24.691Z,84.17
2023-01-20T11:50:09.961Z,84.32
2023-01-20T11:52:37.408Z,85.33
2023-01-20T11:55:07.600Z,86.75
2023-01-20T11:57:37.054Z,88.18
2023-01-20T12:00:04.037Z,89.82
2023-01-20T12:02:38.324Z,90.59
2023-01-20T12:05:09.319Z,90.30
2023-01-20T12:07:41.560Z,92.13
2023-01-20T12:10:13.553Z,92.17
2023-01-20T12:12:43.324Z,91.81
2023-01-20T12:15:13.343Z,92.25
2023-01-20T12:17:41.447Z,93.12
2023-01-20T12:20:16.502Z,93.29
2023-01-20T12:22:47.935Z,93.06
2023-01-20T12:25:22.040Z,94.60
2023-01-20T12:27:51.513Z,94.88
2023-01-20T12:30:27.494Z,94.72
2023-01-20T12:32:54.279Z,95.55
2023-01-20T12:35:23.393Z,95.88
2023-01-20T12:37:54.489Z,96.15
2023-01-20T12:40:25.778Z,97.08
2023-01-20T12:43:10.000Z,97.58
2023-01-20T12:45:49.915Z,97.23
2023-01-20T12:48:24.911Z,97.64
2023-01-20T12:50:57.970Z,97.77
2023-01-20T12:53:31.089Z,98.11
2023-01-20T12:56:07.371Z,98.29
2023-01-20T12:58:39.541Z,97.65
2023-01-20T13:01:20.736Z,98.33
2023-01-20T13:04:17.391Z,98.75
2023-01-20T13:06:56.549Z,98.33
2023-01-20T13:09:30.560Z,99.24
2023-01-20T13:12:09.351Z,99.69
2023-01-20T13:14:38.758Z,100.00
2023-01-20T13:17:12.443Z,100.00
2023-01-20T13:19:40.119Z,100.00
2023-01-20T13:22:09.767Z,99.54
2023-01-20T13:24:36.808Z,99.96
2023-01-20T13:27:03.508Z,100.00
2023-01-20T13:29:41.270Z,100.00
2023-01-20T13:32:22.474Z,100.00
2023-01-20T13:34:50.235Z,100.00
2023-01-20T13:37:28.463Z,100.00
2023-01-20T13:39:55.691Z,100.00
2023-01-20T13:42:46.204Z,100.00
2023-01-20T13:45:28.888Z,99.58
2023-01-20T13:47:56.780Z,99.28
2023-01-20T13:50:25.585Z,99.94
2023-01-20T13:53:05.832Z,99.95
2023-01-20T13:55:47.131Z,100.00
2023-01-20T13:58:13.524Z,100.00
2023-01-20T14:00:39.920Z,100.00
2023-01-20T14:03:12.154Z,100.00
2023-01-20T14:05:39.886Z,100.00
2023-01-20T14:08:13.162Z,100.00
2023-01-20T14:10:39.530Z,100.00
2023-01-20T14:13:08.599Z,100.00
2023-01-20T14:15:36.752Z,100.00
2023-01-20T14:18:03.565Z,100.00
2023-01-20T14:20:30.432Z,100.00
2023-01-20T14:23:13.880Z,100.00
2023-01-20T14:25:42.319Z,100.00
2023-01-20T14:28:17.707Z,100.00
2023-01-20T14:30:44.194Z,100.00
2023-01-20T14:33:14.209Z,100.00
2023-01-20T14:35:40.769Z,100.00
2023-01-20T14:38:15.309Z,100.00
2023-01-20T14:40:43.127Z,100.00
2023-01-20T14:43:14.583Z,100.00
2023-01-20T14:45:43.012Z,100.00
2023-01-20T14:48:10.684Z,100.00
2023-01-20T14:50:37.810Z,100.00
2023-01-20T14:53:04.471Z,100.00
2023-01-20T14:55:31.368Z,100.00
2023-01-20T14:57:59.417Z,100.00
2023-01-20T15:00:27.176Z,100.00
2023-01-20T15:03:09.928Z,100.00
2023-01-20T15:05:38.666Z,100.00
2023-01-20T15:08:20.036Z,100.00
2023-01-20T15:10:46.480Z,100.00
2023-01-20T15:13:43.719Z,100.00
2023-01-20T15:16:16.315Z,100.00
2023-01-20T15:18:42.760Z,100.00
2023-01-20T15:21:17.587Z,100.00
2023-01-20T15:23:44.125Z,100.00
2023-01-20T15:26:17.285Z,100.00
2023-01-20T15:28:44.989Z,100.00
2023-01-20T15:31:13.671Z,100.00
2023-01-20T15:33:40.374Z,100.00
2023-01-20T15:36:14.369Z,100.00
2023-01-20T15:38:40.721Z,100.00
2023-01-20T15:41:07.285Z,100.00
2023-01-20T15:43:33.711Z,100.00
2023-01-20T15:46:01.579Z,100.00
2023-01-20T15:48:28.002Z,100.00
2023-01-20T15:50:54.329Z,100.00
2023-01-20T15:53:21.688Z,100.00
2023-01-20T15:55:48.783Z,100.00
2023-01-20T15:58:26.016Z,100.00
2023-01-20T16:00:53.036Z,100.00
2023-01-20T16:03:21.011Z,100.00
2023-01-20T16:05:48.033Z,100.00
2023-01-20T16:08:15.501Z,100.00
2023-01-20T16:10:42.020Z,100.00
2023-01-20T16:13:08.683Z,100.00
2023-01-20T16:15:35.184Z,100.00
2023-01-20T16:18:01.538Z,100.00
2023-01-20T16:20:29.485Z,100.00
2023-01-20T16:22:55.841Z,100.00
2023-01-20T16:25:22.460Z,100.00
2023-01-20T16:27:49.101Z,100.00
2023-01-20T16:30:16.219Z,100.00
2023-01-20T16:32:42.701Z,100.00
2023-01-20T16:35:09.246Z,100.00
2023-01-20T16:37:36.961Z,100.00
2023-01-20T16:40:03.432Z,100.00
2023-01-20T16:42:29.737Z,100.00
2023-01-20T16:44:56.061Z,100.00
2023-01-20T16:47:22.328Z,100.00
2023-01-20T16:49:48.623Z,100.00
2023-01-20T16:52:14.900Z,100.00
2023-01-20T16:54:42.659Z,100.00
2023-01-20T16:57:09.674Z,100.00
2023-01-20T16:59:35.968Z,100.00
2023-01-20T17:02:02.335Z,100.00
2023-01-20T17:04:28.684Z,100.00
2023-01-20T17:06:54.977Z,100.00
2023-01-20T17:09:21.273Z,100.00
2023-01-20T17:11:48.916Z,100.00
2023-01-20T17:14:15.333Z,100.00
2023-01-20T17:16:41.640Z,100.00
2023-01-20T17:19:07.934Z,100.00
2023-01-20T17:21:37.033Z,100.00
2023-01-20T17:24:04.658Z,100.00
2023-01-20T17:26:31.041Z,100.00
2023-01-20T17:28:59.997Z,100.00
2023-01-20T17:31:26.310Z,100.00
2023-01-20T17:33:52.654Z,99.86
2023-01-20T17:36:18.971Z,100.00
2023-01-20T17:38:45.328Z,100.00
2023-01-20T17:41:12.631Z,99.97
2023-01-20T17:43:39.620Z,100.00
2023-01-20T17:46:13.239Z,99.73
2023-01-20T17:48:39.573Z,100.00
2023-01-20T17:51:08.853Z,100.00
2023-01-20T17:53:35.164Z,100.00
2023-01-20T17:56:11.750Z,99.33
2023-01-20T17:58:39.655Z,99.32
2023-01-20T18:01:09.750Z,99.01
2023-01-20T18:03:37.635Z,99.20
2023-01-20T18:06:04.211Z,99.19
2023-01-20T18:08:30.597Z,99.38
2023-01-20T18:11:00.899Z,99.70
2023-01-20T18:13:27.192Z,100.00
2023-01-20T18:15:53.497Z,99.81
2023-01-20T18:18:19.804Z,99.94
2023-01-20T18:20:47.532Z,99.63
2023-01-20T18:23:13.871Z,99.84
2023-01-20T18:25:40.175Z,99.64
2023-01-20T18:28:06.743Z,100.00
2023-01-20T18:30:33.133Z,99.40
2023-01-20T18:32:59.506Z,99.07
2023-01-20T18:35:25.823Z,99.07
2023-01-20T18:37:53.507Z,98.78
2023-01-20T18:40:19.843Z,98.65
2023-01-20T18:42:46.149Z,99.54
2023-01-20T18:45:12.440Z,98.82
2023-01-20T18:47:38.749Z,99.23
2023-01-20T18:50:05.494Z,99.46
2023-01-20T18:52:31.840Z,99.36
2023-01-20T18:54:59.559Z,99.63
2023-01-20T18:57:25.869Z,99.58
2023-01-20T18:59:52.178Z,98.92
2023-01-20T19:02:18.564Z,98.52
2023-01-20T19:04:45.000Z,99.17
2023-01-20T19:07:11.348Z,98.38
2023-01-20T19:09:37.665Z,99.10
2023-01-20T19:14:49.081Z,99.96
2023-01-20T19:17:15.408Z,99.88
2023-01-20T19:19:42.081Z,99.93
2023-01-20T19:22:09.265Z,98.83
2023-01-20T19:24:35.632Z,99.26
2023-01-20T19:27:01.958Z,98.17
2023-01-20T19:29:29.458Z,98.57
2023-01-20T19:31:57.290Z,98.70
2023-01-20T19:34:24.561Z,97.56
2023-01-20T19:36:50.860Z,97.70
2023-01-20T19:39:17.200Z,97.85
2023-01-20T19:41:43.560Z,99.04
2023-01-20T19:44:10.764Z,99.13
2023-01-20T19:46:37.497Z,98.84
2023-01-20T19:49:05.296Z,99.96
2023-01-20T19:51:31.900Z,99.06
2023-01-20T19:54:00.668Z,99.15
2023-01-20T19:56:28.013Z,98.46
2023-01-20T20:01:37.193Z,99.30
2023-01-20T20:06:53.704Z,98.05
2023-01-20T20:09:20.775Z,98.70
2023-01-20T20:14:35.285Z,98.38
2023-01-20T20:17:01.634Z,98.72
2023-01-20T20:19:28.001Z,98.45
2023-01-20T20:24:46.721Z,98.83
2023-01-20T20:27:13.113Z,98.54
2023-01-20T20:29:39.466Z,98.55
2023-01-20T20:32:08.752Z,99.25
2023-01-20T20:34:35.417Z,99.12
2023-01-20T20:37:01.821Z,99.01
2023-01-20T20:39:28.341Z,98.57
2023-01-20T20:41:56.059Z,98.01
2023-01-20T20:44:22.411Z,98.30
2023-01-20T20:46:48.749Z,98.65
2023-01-20T20:49:15.220Z,97.39
2023-01-20T20:51:41.642Z,97.51
2023-01-20T20:54:08.788Z,97.58
2023-01-20T20:56:35.171Z,97.47
2023-01-20T20:59:03.823Z,96.99
2023-01-20T21:01:31.015Z,97.00
2023-01-20T21:03:57.363Z,96.62
2023-01-20T21:06:24.009Z,96.64
2023-01-20T21:11:38.925Z,96.34
2023-01-20T21:14:06.670Z,96.51
2023-01-20T21:16:33.560Z,96.98
2023-01-20T21:18:59.966Z,96.24
2023-01-20T21:24:09.423Z,95.99
2023-01-20T21:32:07.877Z,95.21
2023-01-20T21:40:05.142Z,94.50
2023-01-20T21:42:31.483Z,94.11
2023-01-20T21:51:24.287Z,94.65
2023-01-20T21:53:52.206Z,93.29
2023-01-20T23:01:14.306Z,96.44
2023-01-20T23:31:34.726Z,95.62
2023-01-20T23:54:28.862Z,95.58
2023-01-20T23:56:55.197Z,95.63
2023-01-20T23:59:21.580Z,95.18
